createdAt,value
2023-02-25T00:01:10.241Z,3.60
2023-02-25T00:03:41.388Z,3.07
2023-02-25T00:06:13.420Z,3.60
2023-02-25T00:08:41.864Z,3.57
2023-02-25T00:11:10.116Z,2.37
2023-02-25T00:13:41.257Z,5.13
2023-02-25T00:16:10.530Z,4.67
2023-02-25T00:18:40.904Z,4.93
2023-02-25T00:21:10.149Z,3.73
2023-02-25T00:23:38.533Z,4.13
2023-02-25T00:26:08.936Z,3.37
2023-02-25T00:28:37.450Z,3.63
2023-02-25T00:31:09.339Z,3.17
2023-02-25T00:33:42.208Z,3.20
2023-02-25T00:36:11.450Z,4.07
2023-02-25T00:38:39.804Z,3.93
2023-02-25T00:41:11.830Z,5.27
2023-02-25T00:43:42.182Z,4.70
2023-02-25T00:46:12.215Z,4.40
2023-02-25T00:48:40.926Z,3.80
2023-02-25T00:51:09.474Z,2.90
2023-02-25T00:53:38.711Z,5.33
2023-02-25T00:56:07.660Z,3.60
2023-02-25T00:58:36.916Z,3.13
2023-02-25T01:01:06.214Z,4.20
2023-02-25T01:03:35.808Z,4.00
2023-02-25T01:06:04.334Z,3.80
2023-02-25T01:08:32.902Z,3.90
2023-02-25T01:11:01.244Z,3.97
2023-02-25T01:13:29.605Z,3.40
2023-02-25T01:15:57.918Z,5.00
2023-02-25T01:18:26.268Z,3.80
2023-02-25T01:20:57.549Z,4.50
2023-02-25T01:23:25.900Z,5.30
2023-02-25T01:25:54.152Z,3.37
2023-02-25T01:28:22.468Z,4.23
2023-02-25T01:30:51.923Z,4.33
2023-02-25T01:33:20.328Z,3.67
2023-02-25T01:35:48.694Z,4.20
2023-02-25T01:38:18.493Z,3.10
2023-02-25T01:40:46.824Z,4.60
2023-02-25T01:43:16.363Z,3.40
2023-02-25T01:45:45.227Z,2.80
2023-02-25T01:48:15.266Z,4.40
2023-02-25T01:50:45.694Z,2.37
2023-02-25T01:53:14.658Z,3.27
2023-02-25T01:55:44.442Z,4.53
2023-02-25T01:58:14.117Z,5.07
2023-02-25T02:00:42.896Z,4.20
2023-02-25T02:03:15.999Z,4.07
2023-02-25T02:05:52.165Z,3.40
2023-02-25T02:08:21.988Z,2.97
2023-02-25T02:10:51.716Z,3.97
2023-02-25T02:13:20.374Z,3.60
2023-02-25T02:15:54.300Z,3.53
2023-02-25T02:18:23.030Z,3.77
2023-02-25T02:20:56.171Z,3.90
2023-02-25T02:23:45.702Z,3.60
2023-02-25T02:26:26.266Z,4.53
2023-02-25T02:29:24.482Z,4.07
2023-02-25T02:32:06.091Z,3.67
2023-02-25T02:34:40.783Z,3.20
2023-02-25T02:37:14.716Z,3.70
2023-02-25T02:39:50.721Z,3.27
2023-02-25T02:42:24.804Z,3.13
2023-02-25T02:44:56.035Z,3.20
2023-02-25T02:47:26.951Z,3.60
2023-02-25T02:49:57.062Z,3.17
2023-02-25T02:52:26.910Z,1.63
2023-02-25T02:54:58.271Z,2.80
2023-02-25T02:57:28.524Z,4.37
2023-02-25T02:59:58.360Z,2.93
2023-02-25T03:02:30.795Z,3.40
2023-02-25T03:05:02.329Z,3.50
2023-02-25T03:07:31.432Z,3.40
2023-02-25T03:10:00.833Z,2.07
2023-02-25T03:12:30.182Z,3.40
2023-02-25T03:14:58.728Z,2.40
2023-02-25T03:17:28.116Z,2.80
2023-02-25T03:20:02.297Z,2.63
2023-02-25T03:22:33.652Z,2.57
2023-02-25T03:25:04.422Z,1.60
2023-02-25T03:27:35.097Z,3.33
2023-02-25T03:30:06.713Z,3.20
2023-02-25T03:32:37.586Z,2.47
2023-02-25T03:35:09.253Z,2.73
2023-02-25T03:37:39.185Z,2.90
2023-02-25T03:40:11.250Z,2.37
2023-02-25T03:42:43.842Z,3.40
2023-02-25T03:45:13.573Z,1.50
2023-02-25T03:47:42.319Z,2.90
2023-02-25T03:50:14.503Z,2.80
2023-02-25T03:52:43.318Z,2.47
2023-02-25T03:55:12.900Z,2.67
2023-02-25T03:57:42.825Z,2.80
2023-02-25T04:00:19.037Z,2.00
2023-02-25T04:02:48.453Z,1.00
2023-02-25T04:05:19.071Z,2.90
2023-02-25T04:07:48.720Z,3.17
2023-02-25T04:10:17.687Z,2.20
2023-02-25T04:12:46.074Z,3.00
2023-02-25T04:15:15.123Z,5.07
2023-02-25T04:17:45.200Z,4.03
2023-02-25T04:20:14.190Z,3.30
2023-02-25T04:22:43.797Z,3.90
2023-02-25T04:25:12.211Z,2.17
2023-02-25T04:27:40.558Z,3.60
2023-02-25T04:30:09.678Z,4.13
2023-02-25T04:32:38.101Z,4.40
2023-02-25T04:35:09.387Z,2.43
2023-02-25T04:37:37.651Z,2.33
2023-02-25T04:40:11.701Z,4.50
2023-02-25T04:42:40.090Z,2.80
2023-02-25T04:45:09.784Z,1.30
2023-02-25T04:47:38.191Z,2.90
2023-02-25T04:50:07.307Z,1.80
2023-02-25T04:52:35.825Z,3.10
2023-02-25T04:55:04.144Z,3.20
2023-02-25T04:57:33.736Z,3.63
2023-02-25T05:00:02.289Z,4.23
2023-02-25T05:02:30.617Z,3.60
2023-02-25T05:04:59.194Z,2.57
2023-02-25T05:07:27.536Z,3.07
2023-02-25T05:09:55.858Z,3.33
2023-02-25T05:12:24.199Z,3.03
2023-02-25T05:14:53.793Z,4.30
2023-02-25T05:17:22.048Z,3.17
2023-02-25T05:19:50.317Z,2.40
2023-02-25T05:22:18.547Z,2.33
2023-02-25T05:24:48.687Z,4.10
2023-02-25T05:27:16.985Z,2.80
2023-02-25T05:29:45.294Z,3.93
2023-02-25T05:32:14.977Z,3.20
2023-02-25T05:34:43.340Z,2.50
2023-02-25T05:37:11.638Z,3.20
2023-02-25T05:39:42.800Z,2.40
2023-02-25T05:42:11.613Z,3.20
2023-02-25T05:44:40.224Z,5.07
2023-02-25T05:47:08.779Z,2.70
2023-02-25T05:49:38.527Z,2.70
2023-02-25T05:52:06.795Z,3.40
2023-02-25T05:54:35.351Z,2.90
2023-02-25T05:57:05.036Z,2.93
2023-02-25T05:59:33.394Z,3.80
2023-02-25T06:02:01.764Z,3.33
2023-02-25T06:04:30.147Z,2.80
2023-02-25T06:07:07.088Z,2.83
2023-02-25T06:09:37.542Z,3.30
2023-02-25T06:12:06.063Z,3.97
2023-02-25T06:14:34.492Z,3.60
2023-02-25T06:17:03.500Z,2.63
2023-02-25T06:19:31.723Z,2.50
2023-02-25T06:22:01.319Z,3.13
2023-02-25T06:24:29.746Z,3.30
2023-02-25T06:26:58.050Z,3.10
2023-02-25T06:29:26.337Z,3.47
2023-02-25T06:31:54.993Z,3.87
2023-02-25T06:34:23.657Z,3.90
2023-02-25T06:36:53.116Z,1.50
2023-02-25T06:39:22.814Z,2.80
2023-02-25T06:41:51.204Z,4.10
2023-02-25T06:44:19.482Z,1.27
2023-02-25T06:46:47.827Z,4.27
2023-02-25T06:49:18.073Z,2.47
2023-02-25T06:51:46.331Z,2.97
2023-02-25T06:54:30.708Z,4.23
2023-02-25T06:57:01.958Z,4.17
2023-02-25T06:59:30.543Z,3.73
2023-02-25T07:01:58.858Z,2.20
2023-02-25T07:04:27.263Z,2.30
2023-02-25T07:06:55.981Z,3.83
2023-02-25T07:09:24.324Z,3.33
2023-02-25T07:11:52.899Z,2.60
2023-02-25T07:14:22.688Z,3.27
2023-02-25T07:16:51.206Z,3.67
2023-02-25T07:19:19.581Z,3.90
2023-02-25T07:21:49.552Z,4.53
2023-02-25T07:24:17.906Z,3.60
2023-02-25T07:26:46.224Z,2.30
2023-02-25T07:29:14.832Z,2.63
2023-02-25T07:31:45.608Z,3.43
2023-02-25T07:34:14.351Z,3.10
2023-02-25T07:36:42.862Z,3.23
2023-02-25T07:39:13.375Z,3.50
2023-02-25T07:41:41.713Z,2.23
2023-02-25T07:44:10.239Z,2.03
2023-02-25T07:46:39.413Z,1.90
2023-02-25T07:49:09.219Z,2.77
2023-02-25T07:51:37.481Z,4.13
2023-02-25T07:54:06.002Z,4.30
2023-02-25T07:56:34.228Z,2.10
2023-02-25T07:59:02.501Z,2.77
2023-02-25T08:01:34.718Z,3.70
2023-02-25T08:04:05.503Z,2.33
2023-02-25T08:06:37.613Z,0.90
2023-02-25T08:09:06.085Z,3.10
2023-02-25T08:11:34.393Z,1.30
2023-02-25T08:14:02.725Z,2.10
2023-02-25T08:16:31.031Z,3.13
2023-02-25T08:19:00.311Z,2.57
2023-02-25T08:21:28.553Z,2.40
2023-02-25T08:23:58.249Z,3.23
2023-02-25T08:26:29.832Z,3.10
2023-02-25T08:28:58.564Z,3.67
2023-02-25T08:31:29.445Z,2.80
2023-02-25T08:33:59.413Z,1.40
2023-02-25T08:36:28.882Z,2.13
2023-02-25T08:38:59.602Z,2.57
2023-02-25T08:41:28.863Z,1.23
2023-02-25T08:44:00.256Z,3.43
2023-02-25T08:46:31.111Z,2.67
2023-02-25T08:49:00.521Z,2.37
2023-02-25T08:51:34.071Z,2.50
2023-02-25T08:54:06.724Z,1.17
2023-02-25T08:56:36.083Z,2.20
2023-02-25T08:59:04.926Z,2.53
2023-02-25T09:01:44.621Z,2.53
2023-02-25T09:04:17.255Z,2.60
2023-02-25T09:06:47.707Z,3.23
2023-02-25T09:09:18.006Z,3.20
2023-02-25T09:11:46.298Z,3.80
2023-02-25T09:14:15.139Z,2.67
2023-02-25T09:16:43.488Z,2.63
2023-02-25T09:19:12.658Z,3.23
2023-02-25T09:21:41.642Z,3.90
2023-02-25T09:24:10.103Z,2.23
2023-02-25T09:26:39.847Z,2.20
2023-02-25T09:29:08.562Z,1.13
2023-02-25T09:31:37.727Z,1.70
2023-02-25T09:34:07.735Z,1.60
2023-02-25T09:36:36.044Z,1.60
2023-02-25T09:39:10.038Z,4.40
2023-02-25T09:41:42.739Z,2.50
2023-02-25T09:44:13.561Z,1.77
2023-02-25T09:46:44.173Z,0.70
2023-02-25T09:49:14.890Z,2.03
2023-02-25T09:51:45.730Z,1.60
2023-02-25T09:54:21.071Z,3.70
2023-02-25T09:56:51.115Z,1.90
2023-02-25T09:59:22.219Z,1.60
2023-02-25T10:01:53.052Z,2.07
2023-02-25T10:04:26.038Z,0.50
2023-02-25T10:06:56.103Z,3.47
2023-02-25T10:09:28.591Z,1.33
2023-02-25T10:12:02.747Z,1.80
2023-02-25T10:14:40.169Z,1.90
2023-02-25T10:17:12.745Z,2.73
2023-02-25T10:19:52.707Z,0.60
2023-02-25T10:22:30.114Z,1.00
2023-02-25T10:25:00.120Z,2.20
2023-02-25T10:27:37.963Z,1.73
2023-02-25T10:30:08.268Z,1.40
2023-02-25T10:32:37.402Z,2.40
2023-02-25T10:35:18.068Z,2.20
2023-02-25T10:37:46.375Z,2.60
2023-02-25T10:40:16.936Z,1.20
2023-02-25T10:42:49.009Z,2.13
2023-02-25T10:45:20.517Z,2.07
2023-02-25T10:47:50.795Z,1.97
2023-02-25T10:50:23.044Z,1.27
2023-02-25T10:52:57.015Z,5.73
2023-02-25T10:55:41.556Z,1.37
2023-02-25T10:58:24.722Z,2.03
2023-02-25T11:00:56.692Z,2.87
2023-02-25T11:03:25.934Z,3.90
2023-02-25T11:05:54.655Z,4.80
2023-02-25T11:08:30.298Z,1.43
2023-02-25T11:11:03.135Z,2.17
2023-02-25T11:13:33.630Z,1.63
2023-02-25T11:16:04.725Z,1.80
2023-02-25T11:18:34.109Z,0.97
2023-02-25T11:21:03.499Z,1.00
2023-02-25T11:23:34.173Z,2.20
2023-02-25T11:26:02.609Z,2.23
2023-02-25T11:28:34.626Z,2.50
2023-02-25T11:31:07.730Z,1.80
2023-02-25T11:33:38.934Z,1.50
2023-02-25T11:36:08.107Z,1.23
2023-02-25T11:38:37.692Z,2.10
2023-02-25T11:41:06.453Z,2.57
2023-02-25T11:43:40.700Z,1.00
2023-02-25T11:46:12.073Z,2.67
2023-02-25T11:48:46.822Z,2.00
2023-02-25T11:51:21.633Z,1.00
2023-02-25T11:53:55.232Z,1.20
2023-02-25T11:56:27.715Z,1.40
2023-02-25T11:59:02.611Z,1.77
2023-02-25T12:01:37.354Z,2.57
2023-02-25T12:04:11.341Z,2.20
2023-02-25T12:06:46.250Z,1.67
2023-02-25T12:09:36.309Z,1.63
2023-02-25T12:12:22.410Z,1.83
2023-02-25T12:15:06.277Z,1.23
2023-02-25T12:17:53.596Z,1.00
2023-02-25T12:20:40.683Z,1.70
2023-02-25T12:23:28.673Z,1.27
2023-02-25T12:25:59.308Z,1.50
2023-02-25T12:28:41.095Z,1.50
2023-02-25T12:31:25.256Z,1.90
2023-02-25T12:34:05.549Z,1.20
2023-02-25T12:36:49.534Z,1.13
2023-02-25T12:39:40.683Z,1.30
2023-02-25T12:42:19.787Z,1.30
2023-02-25T12:45:05.959Z,1.30
2023-02-25T12:47:42.363Z,0.93
2023-02-25T12:50:23.092Z,1.13
2023-02-25T12:53:08.112Z,1.00
2023-02-25T12:55:50.146Z,0.90
2023-02-25T12:58:28.850Z,1.67
2023-02-25T13:01:22.154Z,1.47
2023-02-25T13:04:06.550Z,0.87
2023-02-25T13:06:50.018Z,1.80
2023-02-25T13:09:35.605Z,1.70
2023-02-25T13:12:20.776Z,1.57
2023-02-25T13:14:57.850Z,1.70
2023-02-25T13:17:37.612Z,1.27
2023-02-25T13:20:31.786Z,1.20
2023-02-25T13:23:07.027Z,1.50
2023-02-25T13:25:47.197Z,2.27
2023-02-25T13:28:21.678Z,1.10
2023-02-25T13:30:58.317Z,1.07
2023-02-25T13:33:37.802Z,1.27
2023-02-25T13:36:13.192Z,2.73
2023-02-25T13:38:49.920Z,1.40
2023-02-25T13:41:32.670Z,1.30
2023-02-25T13:44:07.790Z,1.20
2023-02-25T13:46:45.592Z,1.83
2023-02-25T13:49:35.259Z,1.20
2023-02-25T13:52:19.071Z,0.90
2023-02-25T13:54:57.988Z,1.03
2023-02-25T13:57:32.382Z,1.00
2023-02-25T14:00:07.213Z,1.50
2023-02-25T14:02:44.045Z,1.10
2023-02-25T14:05:24.180Z,1.77
2023-02-25T14:08:02.512Z,1.17
2023-02-25T14:10:40.157Z,0.90
2023-02-25T14:13:25.496Z,1.40
2023-02-25T14:16:01.037Z,1.13
2023-02-25T14:18:47.510Z,1.23
2023-02-25T14:21:30.776Z,1.40
2023-02-25T14:24:01.526Z,1.10
2023-02-25T14:26:34.730Z,2.33
2023-02-25T14:29:10.961Z,1.50
2023-02-25T14:31:45.933Z,1.83
2023-02-25T14:34:25.751Z,1.10
2023-02-25T14:37:00.776Z,1.37
2023-02-25T14:39:35.880Z,1.20
2023-02-25T14:42:09.858Z,1.67
2023-02-25T14:44:41.490Z,1.50
2023-02-25T14:47:13.445Z,1.80
2023-02-25T14:49:44.703Z,1.27
2023-02-25T14:52:33.797Z,1.87
2023-02-25T14:55:20.927Z,2.40
2023-02-25T14:58:14.582Z,2.30
2023-02-25T15:01:00.987Z,2.53
2023-02-25T15:03:45.451Z,1.63
2023-02-25T15:06:19.421Z,1.77
2023-02-25T15:08:58.610Z,1.67
2023-02-25T15:11:40.746Z,1.43
2023-02-25T15:14:32.204Z,1.40
2023-02-25T15:17:21.597Z,2.40
2023-02-25T15:20:07.782Z,1.47
2023-02-25T15:22:37.413Z,3.00
2023-02-25T15:25:20.520Z,1.70
2023-02-25T15:27:49.927Z,1.87
2023-02-25T15:30:21.052Z,1.90
2023-02-25T15:32:53.465Z,1.40
2023-02-25T15:35:24.276Z,2.70
2023-02-25T15:38:07.217Z,1.97
2023-02-25T15:40:45.197Z,1.33
2023-02-25T15:43:32.355Z,1.40
2023-02-25T15:46:15.560Z,1.20
2023-02-25T15:48:46.063Z,2.83
2023-02-25T15:51:35.480Z,1.33
2023-02-25T15:54:04.227Z,1.33
2023-02-25T15:56:47.345Z,2.17
2023-02-25T15:59:30.511Z,1.47
2023-02-25T16:01:58.795Z,2.43
2023-02-25T16:04:46.366Z,1.73
2023-02-25T16:07:16.224Z,1.50
2023-02-25T16:09:47.810Z,1.43
2023-02-25T16:12:17.052Z,1.60
2023-02-25T16:14:45.892Z,1.27
2023-02-25T16:17:18.055Z,0.70
2023-02-25T16:19:49.839Z,1.73
2023-02-25T16:22:19.671Z,1.40
2023-02-25T16:24:49.367Z,0.50
2023-02-25T16:27:21.893Z,1.07
2023-02-25T16:29:58.580Z,1.80
2023-02-25T16:32:36.255Z,0.87
2023-02-25T16:35:10.022Z,1.10
2023-02-25T16:37:43.266Z,1.83
2023-02-25T16:40:14.996Z,0.90
2023-02-25T16:42:44.716Z,1.50
2023-02-25T16:45:23.315Z,1.23
2023-02-25T16:47:55.238Z,1.77
2023-02-25T16:50:25.981Z,1.20
2023-02-25T16:52:55.033Z,0.50
2023-02-25T16:55:24.600Z,1.90
2023-02-25T16:58:06.461Z,2.87
2023-02-25T17:00:36.704Z,2.27
2023-02-25T17:03:07.875Z,1.87
2023-02-25T17:05:38.794Z,3.33
2023-02-25T17:08:09.165Z,2.73
2023-02-25T17:10:44.857Z,1.23
2023-02-25T17:13:16.988Z,1.07
2023-02-25T17:15:46.143Z,2.13
2023-02-25T17:18:18.842Z,1.47
2023-02-25T17:20:49.353Z,1.40
2023-02-25T17:23:18.827Z,1.70
2023-02-25T17:25:48.949Z,1.20
2023-02-25T17:28:21.009Z,1.10
2023-02-25T17:30:49.582Z,1.07
2023-02-25T17:33:25.821Z,1.43
2023-02-25T17:35:58.236Z,1.13
2023-02-25T17:38:28.955Z,1.53
2023-02-25T17:40:59.246Z,2.03
2023-02-25T17:43:28.091Z,1.57
2023-02-25T17:45:57.943Z,1.33
2023-02-25T17:48:28.193Z,1.07
2023-02-25T17:51:00.105Z,0.80
2023-02-25T17:53:47.334Z,1.27
2023-02-25T17:56:22.775Z,0.90
2023-02-25T17:58:51.672Z,0.83
2023-02-25T18:01:23.082Z,1.23
2023-02-25T18:03:53.019Z,0.80
2023-02-25T18:06:43.002Z,1.33
2023-02-25T18:09:31.239Z,1.00
2023-02-25T18:12:01.216Z,0.80
2023-02-25T18:14:33.629Z,0.90
2023-02-25T18:17:02.450Z,1.60
2023-02-25T18:19:37.653Z,1.77
2023-02-25T18:22:06.569Z,0.67
2023-02-25T18:24:37.796Z,1.83
2023-02-25T18:27:20.911Z,0.87
2023-02-25T18:29:49.690Z,1.43
2023-02-25T18:32:18.207Z,1.63
2023-02-25T18:34:46.937Z,0.40
2023-02-25T18:37:17.953Z,1.53
2023-02-25T18:39:48.499Z,1.40
2023-02-25T18:42:17.860Z,1.67
2023-02-25T18:44:46.362Z,1.40
2023-02-25T18:47:16.778Z,1.87
2023-02-25T18:49:46.033Z,0.80
2023-02-25T18:52:19.309Z,1.97
2023-02-25T18:54:49.016Z,1.07
2023-02-25T18:57:23.528Z,1.30
2023-02-25T18:59:51.873Z,1.90
2023-02-25T19:02:25.818Z,0.90
2023-02-25T19:04:56.590Z,1.90
2023-02-25T19:07:26.753Z,1.67
2023-02-25T19:09:57.643Z,1.17
2023-02-25T19:12:29.588Z,1.67
2023-02-25T19:14:59.898Z,1.50
2023-02-25T19:17:28.756Z,1.83
2023-02-25T19:19:57.350Z,1.40
2023-02-25T19:22:27.535Z,1.83
2023-02-25T19:24:58.383Z,0.90
2023-02-25T19:27:27.751Z,0.90
2023-02-25T19:29:57.004Z,1.30
2023-02-25T19:32:25.764Z,2.10
2023-02-25T19:34:54.183Z,1.00
2023-02-25T19:37:22.457Z,1.10
2023-02-25T19:39:53.153Z,2.00
2023-02-25T19:42:27.517Z,1.43
2023-02-25T19:44:55.902Z,1.10
2023-02-25T19:47:25.403Z,1.40
2023-02-25T19:49:53.836Z,2.37
2023-02-25T19:52:31.589Z,1.90
2023-02-25T19:55:00.055Z,1.10
2023-02-25T19:57:38.473Z,1.10
2023-02-25T20:00:12.079Z,2.00
2023-02-25T20:02:40.530Z,0.90
2023-02-25T20:05:16.800Z,0.67
2023-02-25T20:07:45.405Z,0.40
2023-02-25T20:10:18.515Z,1.40
2023-02-25T20:13:00.434Z,1.37
2023-02-25T20:15:28.790Z,1.60
2023-02-25T20:17:57.660Z,2.20
2023-02-25T20:20:27.105Z,1.90
2023-02-25T20:22:56.492Z,1.57
2023-02-25T20:25:25.940Z,1.77
2023-02-25T20:27:57.882Z,1.53
2023-02-25T20:30:35.354Z,1.70
2023-02-25T20:33:04.019Z,2.20
2023-02-25T20:35:32.874Z,1.20
2023-02-25T20:38:10.352Z,1.83
2023-02-25T20:40:38.884Z,1.80
2023-02-25T20:43:16.381Z,1.17
2023-02-25T20:45:47.424Z,1.10
2023-02-25T20:48:22.955Z,1.80
2023-02-25T20:50:51.508Z,3.07
2023-02-25T20:53:21.153Z,2.27
2023-02-25T20:55:50.587Z,2.30
2023-02-25T20:58:23.810Z,1.90
2023-02-25T21:00:53.321Z,2.43
2023-02-25T21:03:21.715Z,2.33
2023-02-25T21:05:50.081Z,2.30
2023-02-25T21:08:18.628Z,1.93
2023-02-25T21:10:49.564Z,1.77
2023-02-25T21:13:20.244Z,1.70
2023-02-25T21:15:49.655Z,1.80
2023-02-25T21:18:17.937Z,2.47
2023-02-25T21:20:47.465Z,1.60
2023-02-25T21:23:17.806Z,2.17
2023-02-25T21:25:46.860Z,2.80
2023-02-25T21:28:15.339Z,1.80
2023-02-25T21:30:45.233Z,2.23
2023-02-25T21:33:19.040Z,1.90
2023-02-25T21:35:52.929Z,1.63
2023-02-25T21:38:21.481Z,2.03
2023-02-25T21:40:51.410Z,1.80
2023-02-25T21:43:19.728Z,2.40
2023-02-25T21:45:56.247Z,3.90
2023-02-25T21:48:26.416Z,2.43
2023-02-25T21:50:54.920Z,2.80
2023-02-25T21:53:23.484Z,3.60
2023-02-25T21:55:51.934Z,2.63
2023-02-25T21:58:22.347Z,2.93
2023-02-25T22:00:53.504Z,2.90
2023-02-25T22:03:23.212Z,2.47
2023-02-25T22:05:51.564Z,2.43
2023-02-25T22:08:19.983Z,3.03
2023-02-25T22:10:48.310Z,2.50
2023-02-25T22:13:16.654Z,2.70
2023-02-25T22:15:48.612Z,2.17
2023-02-25T22:18:16.977Z,2.30
2023-02-25T22:20:47.326Z,3.27
2023-02-25T22:23:16.982Z,2.50
2023-02-25T22:25:45.348Z,2.10
2023-02-25T22:28:13.825Z,2.40
2023-02-25T22:30:42.167Z,1.63
2023-02-25T22:33:10.613Z,2.17
2023-02-25T22:35:39.137Z,2.73
2023-02-25T22:38:10.806Z,2.50
2023-02-25T22:40:41.169Z,1.80
2023-02-25T22:43:10.002Z,1.73
2023-02-25T22:45:38.267Z,2.50
2023-02-25T22:48:06.592Z,2.20
2023-02-25T22:50:35.060Z,2.70
2023-02-25T22:53:06.382Z,1.47
2023-02-25T22:55:37.430Z,2.70
2023-02-25T22:58:07.972Z,2.73
2023-02-25T23:00:38.576Z,1.60
2023-02-25T23:03:07.555Z,2.40
2023-02-25T23:05:36.030Z,2.03
2023-02-25T23:08:04.784Z,2.20
2023-02-25T23:10:36.020Z,2.40
2023-02-25T23:13:08.073Z,1.70
2023-02-25T23:15:36.895Z,2.07
2023-02-25T23:18:06.198Z,3.10
2023-02-25T23:20:35.284Z,2.27
2023-02-25T23:23:04.973Z,2.60
2023-02-25T23:25:33.951Z,2.77
2023-02-25T23:28:02.355Z,0.83
2023-02-25T23:30:32.247Z,2.63
2023-02-25T23:33:00.715Z,1.87
2023-02-25T23:35:29.133Z,2.07
2023-02-25T23:37:57.512Z,2.87
2023-02-25T23:40:25.914Z,2.53
2023-02-25T23:42:54.259Z,3.20
2023-02-25T23:45:22.715Z,1.70
2023-02-25T23:47:52.449Z,2.60
2023-02-25T23:50:20.903Z,1.87
2023-02-25T23:52:49.214Z,1.90
2023-02-25T23:55:17.576Z,3.50
2023-02-25T23:57:46.062Z,2.23
